Terminal Aerodrome Forecast
Issued by NWS

Home | Current Version | Previous Version | Text Only | Print | Product List | Glossary Off
Versions: 1 2 3 4 5 6 7 8 9 10 11 12 13 14 15 16

000
FTUS43 KICT 202320
TAFHUT
TAF
KHUT 202320Z 2100/2124 30014G21KT P6SM BKN080
     FM210100 22008KT P6SM SCT080
     FM211500 24013G19KT P6SM SCT050=

USA.gov is the U.S. government's official web portal to all federal, state and local government web resources and services.